Time;durP1;ratioP1;P1;durP2;ratioP2;P2;SDS_P1;SDS_P2;PMS_P1;PMS_P2;Temp;Humidity;BMP_temperature;BMP_pressure;BME280_temperature;BME280_humidity;BME280_pressure;Samples;Min_cycle;Max_cycle;Signal;HPM_P1;HPM_P2
2023/05/06 00:01:39;;;;;;;;;;;15.20;58.00;;;;;;4994973;28;19925;-77
2023/05/06 00:04:05;;;;;;;;;;;15.20;58.00;;;;;;5007281;28;19998;-76
2023/05/06 00:06:32;;;;;;;;;;;15.20;58.00;;;;;;5011275;28;19928;-77
2023/05/06 00:08:58;;;;;;;;;;;15.20;58.10;;;;;;5012058;28;19921;-77
2023/05/06 00:11:23;;;;;;;;;;;15.10;58.10;;;;;;5010753;28;19927;-77
2023/05/06 00:13:48;;;;;;;;;;;15.10;58.10;;;;;;5028211;28;19921;-77
2023/05/06 00:16:14;;;;;;;;;;;15.10;58.10;;;;;;5012671;28;20047;-77
2023/05/06 00:18:40;;;;;;;;;;;15.00;58.10;;;;;;4999339;28;19921;-77
2023/05/06 00:21:05;;;;;;;;;;;15.00;58.20;;;;;;4997953;28;19921;-77
2023/05/06 00:23:31;;;;;;;;;;;15.00;58.20;;;;;;5011294;28;20776;-76
2023/05/06 00:25:56;;;;;;;;;;;15.00;58.20;;;;;;4995520;28;20878;-77
2023/05/06 00:28:22;;;;;;;;;;;15.00;58.30;;;;;;5029916;28;19921;-76
2023/05/06 00:30:47;;;;;;;;;;;15.00;58.30;;;;;;5008912;28;19943;-76
2023/05/06 00:33:13;;;;;;;;;;;14.90;58.30;;;;;;5007391;28;20418;-76
2023/05/06 00:35:38;;;;;;;;;;;14.90;58.30;;;;;;5010265;28;19927;-77
2023/05/06 00:38:07;;;;;;;;;;;14.80;58.30;;;;;;5009769;28;19956;-76
2023/05/06 00:40:33;;;;;;;;;;;14.80;58.30;;;;;;5010949;28;20505;-76
2023/05/06 00:42:58;;;;;;;;;;;14.80;58.30;;;;;;5006654;28;20511;-76
2023/05/06 00:45:24;;;;;;;;;;;14.80;58.40;;;;;;5012790;28;20371;-76
2023/05/06 00:47:50;;;;;;;;;;;14.70;58.40;;;;;;5009774;28;19932;-76
2023/05/06 00:50:15;;;;;;;;;;;14.70;58.40;;;;;;5008192;28;19928;-77
2023/05/06 00:52:41;;;;;;;;;;;14.70;58.50;;;;;;5008266;28;19927;-76
2023/05/06 00:55:06;;;;;;;;;;;14.60;58.50;;;;;;4995671;28;19986;-76
2023/05/06 00:57:32;;;;;;;;;;;14.60;58.50;;;;;;5009624;28;19920;-76
2023/05/06 00:59:57;;;;;;;;;;;14.60;58.60;;;;;;5012328;28;20885;-76
2023/05/06 01:02:22;;;;;;;;;;;14.60;58.60;;;;;;5015700;28;20003;-76
2023/05/06 01:04:48;;;;;;;;;;;14.50;58.60;;;;;;5028585;28;19952;-76
2023/05/06 01:07:16;;;;;;;;;;;14.50;58.70;;;;;;4997956;28;19960;-76
2023/05/06 01:10:01;;;;;;;;;;;14.40;58.70;;;;;;5032706;28;19986;-77
2023/05/06 01:12:43;;;;;;;;;;;14.40;59.40;;;;;;5014732;28;19921;-76
2023/05/06 01:15:16;;;;;;;;;;;14.40;58.70;;;;;;5026533;28;19948;-76
2023/05/06 01:17:42;;;;;;;;;;;14.40;58.80;;;;;;4996842;28;20048;-76
2023/05/06 01:20:10;;;;;;;;;;;14.30;58.80;;;;;;5014570;28;19927;-76
2023/05/06 01:22:36;;;;;;;;;;;14.30;58.80;;;;;;5010494;28;19924;-76
2023/05/06 01:25:01;;;;;;;;;;;14.30;59.10;;;;;;5011019;28;20378;-76
2023/05/06 01:27:27;;;;;;;;;;;14.30;59.00;;;;;;5013907;28;20320;-76
2023/05/06 01:29:52;;;;;;;;;;;14.20;58.90;;;;;;4998377;28;19925;-76
2023/05/06 01:32:18;;;;;;;;;;;14.20;58.90;;;;;;4995682;28;19921;-76
2023/05/06 01:35:02;;;;;;;;;;;14.20;59.00;;;;;;5030322;28;20358;-76
2023/05/06 01:37:35;;;;;;;;;;;14.10;58.90;;;;;;5030882;28;20036;-76
2023/05/06 01:40:00;;;;;;;;;;;14.20;59.00;;;;;;5024960;28;19917;-76
2023/05/06 01:42:26;;;;;;;;;;;14.10;59.00;;;;;;5030823;28;19916;-76
2023/05/06 01:44:51;;;;;;;;;;;14.10;59.00;;;;;;5012096;28;19924;-76
2023/05/06 01:47:17;;;;;;;;;;;14.10;59.00;;;;;;4998682;28;19974;-76
2023/05/06 01:49:42;;;;;;;;;;;14.10;59.10;;;;;;5013474;28;19921;-76
2023/05/06 01:52:08;;;;;;;;;;;14.10;59.10;;;;;;5011438;28;19924;-76
2023/05/06 01:54:33;;;;;;;;;;;14.00;59.10;;;;;;5013250;28;20524;-76
2023/05/06 01:56:59;;;;;;;;;;;14.00;59.10;;;;;;5026770;28;19983;-76
2023/05/06 01:59:24;;;;;;;;;;;14.00;59.20;;;;;;5006469;28;20027;-75
2023/05/06 02:01:50;;;;;;;;;;;14.00;59.20;;;;;;5030017;28;19932;-76
2023/05/06 02:04:15;;;;;;;;;;;13.90;59.30;;;;;;5010922;28;21701;-76
2023/05/06 02:06:41;;;;;;;;;;;13.90;59.20;;;;;;5012442;28;19928;-76
2023/05/06 02:09:06;;;;;;;;;;;13.90;59.30;;;;;;4996120;28;20558;-76
2023/05/06 02:11:32;;;;;;;;;;;13.80;59.30;;;;;;5014943;28;19927;-76
2023/05/06 02:13:57;;;;;;;;;;;13.70;59.30;;;;;;4997164;28;19947;-76
2023/05/06 02:16:26;;;;;;;;;;;13.60;59.30;;;;;;5015136;28;19928;-76
2023/05/06 02:18:51;;;;;;;;;;;13.60;59.40;;;;;;5011792;28;19921;-76
2023/05/06 02:21:17;;;;;;;;;;;13.60;59.50;;;;;;5031173;28;19921;-76
2023/05/06 02:23:42;;;;;;;;;;;13.50;59.50;;;;;;5012131;28;19963;-76
2023/05/06 02:26:08;;;;;;;;;;;13.50;59.50;;;;;;5013778;28;20804;-76
2023/05/06 02:28:33;;;;;;;;;;;13.40;59.50;;;;;;5029359;28;19929;-76
2023/05/06 02:30:58;;;;;;;;;;;13.40;59.60;;;;;;4995249;28;20003;-76
2023/05/06 02:33:25;;;;;;;;;;;13.30;59.70;;;;;;5010468;28;20299;-75
2023/05/06 02:35:50;;;;;;;;;;;13.30;59.70;;;;;;4986443;28;19932;-76
2023/05/06 02:38:16;;;;;;;;;;;13.30;59.70;;;;;;5010897;28;19924;-76
2023/05/06 02:40:41;;;;;;;;;;;13.20;59.70;;;;;;5013217;28;19928;-76
2023/05/06 02:43:07;;;;;;;;;;;13.20;59.80;;;;;;5009913;28;20475;-76
2023/05/06 02:45:32;;;;;;;;;;;13.10;59.80;;;;;;5013059;28;19928;-76
2023/05/06 02:47:58;;;;;;;;;;;13.10;59.90;;;;;;4995115;28;19925;-76
2023/05/06 02:50:23;;;;;;;;;;;13.00;59.80;;;;;;5011409;28;19921;-76
2023/05/06 02:52:48;;;;;;;;;;;13.00;59.90;;;;;;4997678;28;19982;-76
2023/05/06 02:55:14;;;;;;;;;;;13.00;60.00;;;;;;5029829;28;20530;-76
2023/05/06 02:57:40;;;;;;;;;;;12.90;60.00;;;;;;5027956;28;19983;-76
2023/05/06 03:00:05;;;;;;;;;;;12.90;60.00;;;;;;5009470;28;19921;-76
2023/05/06 03:02:31;;;;;;;;;;;12.90;60.00;;;;;;5011422;28;19925;-76
2023/05/06 03:04:56;;;;;;;;;;;12.80;60.00;;;;;;5010148;28;19921;-76
2023/05/06 03:07:22;;;;;;;;;;;12.80;60.10;;;;;;5028635;28;19929;-76
2023/05/06 03:09:47;;;;;;;;;;;12.80;60.20;;;;;;5013439;28;20456;-76
2023/05/06 03:12:13;;;;;;;;;;;12.70;60.10;;;;;;5010545;28;19929;-76
2023/05/06 03:14:38;;;;;;;;;;;12.70;60.20;;;;;;5010976;28;19928;-76
2023/05/06 03:17:03;;;;;;;;;;;12.70;60.30;;;;;;5026255;28;20407;-76
2023/05/06 03:19:29;;;;;;;;;;;12.60;60.30;;;;;;5012506;28;20708;-76
2023/05/06 03:21:55;;;;;;;;;;;12.60;60.30;;;;;;5027864;28;19925;-76
2023/05/06 03:24:20;;;;;;;;;;;12.60;60.40;;;;;;5010184;28;19979;-77
2023/05/06 03:26:46;;;;;;;;;;;12.50;60.30;;;;;;5004158;28;19936;-76
2023/05/06 03:29:11;;;;;;;;;;;12.40;60.40;;;;;;5011784;28;19921;-76
2023/05/06 03:31:37;;;;;;;;;;;12.40;60.50;;;;;;5011581;28;20384;-76
2023/05/06 03:34:02;;;;;;;;;;;12.30;60.50;;;;;;5011492;28;19921;-76
2023/05/06 03:36:28;;;;;;;;;;;12.30;60.50;;;;;;5029739;28;19920;-76
2023/05/06 03:38:54;;;;;;;;;;;12.20;60.50;;;;;;5013487;28;20978;-75
2023/05/06 03:41:20;;;;;;;;;;;12.20;60.60;;;;;;5029424;28;19921;-76
2023/05/06 03:43:45;;;;;;;;;;;12.10;60.60;;;;;;5013744;28;19924;-76
2023/05/06 03:46:11;;;;;;;;;;;12.20;60.70;;;;;;5029759;28;19932;-76
2023/05/06 03:48:36;;;;;;;;;;;12.10;60.70;;;;;;5025457;28;19920;-75
2023/05/06 03:51:02;;;;;;;;;;;12.10;60.70;;;;;;5013927;28;19928;-76
2023/05/06 03:53:27;;;;;;;;;;;12.00;60.70;;;;;;5029264;28;19956;-76
2023/05/06 03:55:53;;;;;;;;;;;12.00;60.80;;;;;;5008305;28;19920;-76
2023/05/06 03:58:18;;;;;;;;;;;12.00;60.80;;;;;;5013201;28;20443;-75
2023/05/06 04:00:44;;;;;;;;;;;11.90;60.80;;;;;;5007793;28;19967;-76
2023/05/06 04:03:10;;;;;;;;;;;11.90;60.90;;;;;;5008699;28;19925;-76
2023/05/06 04:05:35;;;;;;;;;;;11.90;60.90;;;;;;5026795;28;19959;-76
2023/05/06 04:08:00;;;;;;;;;;;11.90;61.00;;;;;;5012175;28;20498;-76
2023/05/06 04:10:26;;;;;;;;;;;11.80;60.90;;;;;;5011631;28;19970;-76
2023/05/06 04:12:51;;;;;;;;;;;11.80;61.00;;;;;;5027926;28;19927;-75
2023/05/06 04:15:17;;;;;;;;;;;11.80;61.00;;;;;;5011910;28;19959;-76
2023/05/06 04:17:42;;;;;;;;;;;11.80;61.10;;;;;;5030935;28;19925;-76
2023/05/06 04:20:08;;;;;;;;;;;11.80;61.10;;;;;;5029134;28;19932;-75
2023/05/06 04:22:34;;;;;;;;;;;11.80;61.10;;;;;;5009420;28;20597;-76
2023/05/06 04:25:00;;;;;;;;;;;11.80;61.10;;;;;;5009993;28;19917;-76
2023/05/06 04:27:28;;;;;;;;;;;11.70;61.20;;;;;;5009932;28;20004;-76
2023/05/06 04:29:54;;;;;;;;;;;11.70;61.20;;;;;;4996530;28;19921;-76
2023/05/06 04:32:19;;;;;;;;;;;11.70;61.30;;;;;;5014191;28;19928;-76
2023/05/06 04:34:46;;;;;;;;;;;11.70;61.30;;;;;;5030503;28;20015;-76
2023/05/06 04:37:12;;;;;;;;;;;11.70;61.30;;;;;;5030825;28;20021;-76
2023/05/06 04:39:38;;;;;;;;;;;11.70;61.30;;;;;;5014326;28;19925;-76
2023/05/06 04:42:03;;;;;;;;;;;11.70;61.80;;;;;;5008328;28;20383;-76
2023/05/06 04:44:29;;;;;;;;;;;11.70;61.30;;;;;;5014603;28;24505;-76
2023/05/06 04:46:55;;;;;;;;;;;11.80;61.40;;;;;;5030223;28;20964;-76
2023/05/06 04:49:20;;;;;;;;;;;11.80;61.40;;;;;;5015052;28;19932;-75
2023/05/06 04:51:46;;;;;;;;;;;11.80;61.30;;;;;;5014937;28;20463;-76
2023/05/06 04:54:11;;;;;;;;;;;11.80;61.30;;;;;;5013765;28;19928;-76
2023/05/06 04:56:37;;;;;;;;;;;11.80;62.00;;;;;;4999640;28;19921;-76
2023/05/06 04:59:02;;;;;;;;;;;11.80;61.20;;;;;;5014171;28;20528;-76
2023/05/06 05:01:28;;;;;;;;;;;11.90;61.30;;;;;;5032197;28;20473;-76
2023/05/06 05:03:53;;;;;;;;;;;11.90;61.20;;;;;;5011808;28;19925;-76
2023/05/06 05:06:19;;;;;;;;;;;11.90;61.20;;;;;;5011572;28;19956;-76
2023/05/06 05:08:44;;;;;;;;;;;12.00;61.20;;;;;;5011912;28;19932;-76
2023/05/06 05:11:10;;;;;;;;;;;12.00;61.10;;;;;;5010286;28;20415;-75
2023/05/06 05:13:36;;;;;;;;;;;12.00;61.10;;;;;;5028712;28;19929;-77
2023/05/06 05:16:01;;;;;;;;;;;12.00;61.10;;;;;;4998020;28;20041;-75
2023/05/06 05:18:28;;;;;;;;;;;12.10;61.10;;;;;;5014083;28;19932;-76
2023/05/06 05:20:53;;;;;;;;;;;12.10;61.10;;;;;;5011412;28;19978;-76
2023/05/06 05:23:18;;;;;;;;;;;12.20;61.10;;;;;;5013648;28;19925;-76
2023/05/06 05:25:44;;;;;;;;;;;12.20;61.10;;;;;;5011053;28;19967;-76
2023/05/06 05:28:09;;;;;;;;;;;12.20;61.10;;;;;;5027772;28;20006;-76
2023/05/06 05:30:35;;;;;;;;;;;12.30;61.10;;;;;;5028990;28;19978;-76
2023/05/06 05:33:00;;;;;;;;;;;12.30;61.00;;;;;;4996617;28;19956;-76
2023/05/06 05:35:26;;;;;;;;;;;12.40;61.00;;;;;;5014738;28;20668;-77
2023/05/06 05:37:51;;;;;;;;;;;12.40;61.00;;;;;;5010780;28;19917;-76
2023/05/06 05:40:16;;;;;;;;;;;12.40;60.90;;;;;;5013618;28;20099;-76
2023/05/06 05:42:42;;;;;;;;;;;12.50;60.90;;;;;;5026781;28;20702;-76
2023/05/06 05:45:08;;;;;;;;;;;12.50;60.90;;;;;;5011075;28;19925;-76
2023/05/06 05:47:33;;;;;;;;;;;12.60;60.90;;;;;;4998463;28;20425;-76
2023/05/06 05:49:58;;;;;;;;;;;12.60;60.80;;;;;;5009881;28;20383;-77
2023/05/06 05:52:24;;;;;;;;;;;12.70;60.80;;;;;;5011435;28;19921;-76
2023/05/06 05:54:50;;;;;;;;;;;12.70;60.80;;;;;;5011506;28;19925;-76
2023/05/06 05:57:15;;;;;;;;;;;12.80;60.80;;;;;;5030644;28;20036;-76
2023/05/06 05:59:41;;;;;;;;;;;12.90;60.80;;;;;;4988499;28;19917;-76
2023/05/06 06:02:06;;;;;;;;;;;12.90;60.70;;;;;;5024983;28;20027;-76
2023/05/06 06:04:32;;;;;;;;;;;13.00;60.80;;;;;;5013503;28;19925;-76
2023/05/06 06:06:57;;;;;;;;;;;13.10;60.80;;;;;;5010405;28;19947;-76
2023/05/06 06:09:23;;;;;;;;;;;13.10;60.70;;;;;;5015235;28;19921;-76
2023/05/06 06:11:48;;;;;;;;;;;13.20;60.60;;;;;;5026337;28;20388;-77
2023/05/06 06:14:14;;;;;;;;;;;13.30;60.60;;;;;;4995321;28;20451;-76
2023/05/06 06:16:39;;;;;;;;;;;13.40;60.60;;;;;;5010762;28;19924;-77
2023/05/06 06:19:05;;;;;;;;;;;13.50;60.60;;;;;;5012732;28;19971;-77
2023/05/06 06:21:30;;;;;;;;;;;13.50;60.40;;;;;;5025531;28;19920;-76
2023/05/06 06:23:56;;;;;;;;;;;13.70;60.50;;;;;;5030184;28;19921;-77
2023/05/06 06:26:22;;;;;;;;;;;13.70;60.40;;;;;;5026987;28;19999;-76
2023/05/06 06:28:47;;;;;;;;;;;13.80;60.40;;;;;;5027714;28;20020;-76
2023/05/06 06:31:12;;;;;;;;;;;13.90;60.30;;;;;;5011638;28;19925;-76
2023/05/06 06:33:38;;;;;;;;;;;14.10;60.40;;;;;;5030282;28;19921;-76
2023/05/06 06:36:04;;;;;;;;;;;14.20;60.30;;;;;;4997581;28;19944;-76
2023/05/06 06:38:29;;;;;;;;;;;14.30;60.20;;;;;;5028215;28;20016;-76
2023/05/06 06:40:55;;;;;;;;;;;14.40;60.20;;;;;;5028200;28;20074;-76
2023/05/06 06:43:22;;;;;;;;;;;14.50;60.10;;;;;;4995069;28;20314;-76
2023/05/06 06:45:47;;;;;;;;;;;14.60;60.00;;;;;;5011592;28;20670;-76
2023/05/06 06:48:13;;;;;;;;;;;14.70;59.90;;;;;;5016501;28;19929;-76
2023/05/06 06:50:40;;;;;;;;;;;14.80;59.90;;;;;;5008352;28;21578;-76
2023/05/06 06:53:06;;;;;;;;;;;14.90;59.80;;;;;;5012466;28;19929;-76
2023/05/06 06:55:32;;;;;;;;;;;15.10;59.80;;;;;;5026824;28;19927;-77
2023/05/06 06:57:57;;;;;;;;;;;15.20;59.80;;;;;;5027699;28;20485;-77
2023/05/06 07:00:23;;;;;;;;;;;15.30;59.60;;;;;;5028497;28;20570;-77
2023/05/06 07:02:48;;;;;;;;;;;15.40;59.60;;;;;;5025148;28;19936;-76
2023/05/06 07:05:14;;;;;;;;;;;15.60;59.60;;;;;;5012148;28;19924;-76
2023/05/06 07:07:39;;;;;;;;;;;15.70;59.50;;;;;;4993270;28;19932;-77
2023/05/06 07:10:05;;;;;;;;;;;15.80;59.40;;;;;;5009174;28;19921;-76
2023/05/06 07:12:30;;;;;;;;;;;15.90;59.40;;;;;;5010027;28;20469;-75
2023/05/06 07:14:56;;;;;;;;;;;16.10;59.30;;;;;;5008351;28;20654;-76
2023/05/06 07:17:21;;;;;;;;;;;16.20;59.30;;;;;;5013511;28;19938;-75
2023/05/06 07:19:47;;;;;;;;;;;16.30;59.20;;;;;;5008719;28;19925;-76
2023/05/06 07:22:21;;;;;;;;;;;16.40;59.10;;;;;;5026384;28;19956;-76
2023/05/06 07:24:46;;;;;;;;;;;16.50;59.10;;;;;;5029417;28;19921;-76
2023/05/06 07:27:12;;;;;;;;;;;16.70;59.00;;;;;;5008190;28;19925;-76
2023/05/06 07:29:37;;;;;;;;;;;16.80;58.90;;;;;;4990053;28;19921;-77
2023/05/06 07:32:03;;;;;;;;;;;16.90;58.80;;;;;;5009338;28;19921;-76
2023/05/06 07:34:28;;;;;;;;;;;17.10;58.70;;;;;;5029224;28;19921;-76
2023/05/06 07:36:54;;;;;;;;;;;17.20;58.60;;;;;;5027420;28;19932;-76
2023/05/06 07:39:20;;;;;;;;;;;17.40;58.60;;;;;;5012128;28;19921;-76
2023/05/06 07:41:45;;;;;;;;;;;17.50;58.50;;;;;;5009969;28;19920;-76
2023/05/06 07:44:11;;;;;;;;;;;17.70;58.40;;;;;;5026052;28;19925;-76
2023/05/06 07:46:36;;;;;;;;;;;17.80;58.30;;;;;;5025814;28;20024;-76
2023/05/06 07:49:02;;;;;;;;;;;18.00;58.20;;;;;;5024840;28;19920;-76
2023/05/06 07:51:27;;;;;;;;;;;18.10;58.10;;;;;;5014577;28;19925;-76
2023/05/06 07:53:53;;;;;;;;;;;18.30;58.00;;;;;;5008103;28;19925;-76
2023/05/06 07:56:18;;;;;;;;;;;18.50;58.00;;;;;;5013927;28;20662;-76
2023/05/06 07:58:44;;;;;;;;;;;18.60;57.80;;;;;;5008636;28;19928;-76
2023/05/06 08:01:09;;;;;;;;;;;18.80;57.60;;;;;;4997363;28;19972;-77
2023/05/06 08:03:35;;;;;;;;;;;18.90;57.60;;;;;;5030329;28;19928;-77
2023/05/06 08:06:00;;;;;;;;;;;19.00;57.50;;;;;;5015076;28;20358;-76
2023/05/06 08:08:28;;;;;;;;;;;19.20;57.40;;;;;;5027672;28;19925;-77
2023/05/06 08:10:54;;;;;;;;;;;19.30;57.30;;;;;;5030666;28;19917;-77
2023/05/06 08:13:20;;;;;;;;;;;19.50;57.20;;;;;;5016046;28;19982;-76
2023/05/06 08:15:45;;;;;;;;;;;19.70;57.10;;;;;;5016488;28;20376;-77
2023/05/06 08:18:11;;;;;;;;;;;19.90;56.90;;;;;;4997126;28;19917;-76
2023/05/06 08:20:36;;;;;;;;;;;20.10;56.80;;;;;;5012476;28;20010;-77
2023/05/06 08:23:02;;;;;;;;;;;20.20;56.70;;;;;;5031995;28;20317;-77
2023/05/06 08:25:27;;;;;;;;;;;20.40;56.60;;;;;;5013483;28;20631;-76
2023/05/06 08:27:52;;;;;;;;;;;20.50;56.50;;;;;;5027423;28;19921;-77
2023/05/06 08:30:18;;;;;;;;;;;20.60;56.30;;;;;;5033120;28;19925;-76
2023/05/06 08:32:43;;;;;;;;;;;20.70;56.20;;;;;;5012510;28;19997;-77
2023/05/06 08:35:09;;;;;;;;;;;20.70;56.20;;;;;;5032584;28;20352;-76
2023/05/06 08:37:34;;;;;;;;;;;20.80;56.20;;;;;;5014431;28;19920;-77
2023/05/06 08:40:00;;;;;;;;;;;20.90;56.10;;;;;;5031983;28;19921;-77
2023/05/06 08:42:25;;;;;;;;;;;21.10;56.10;;;;;;5015619;28;20602;-77
2023/05/06 08:44:51;;;;;;;;;;;21.20;56.00;;;;;;5012761;28;19928;-77
2023/05/06 08:47:19;;;;;;;;;;;21.30;55.80;;;;;;5012204;28;19929;-77
2023/05/06 08:49:45;;;;;;;;;;;21.30;55.80;;;;;;5031072;28;19978;-77
2023/05/06 08:52:10;;;;;;;;;;;21.30;55.70;;;;;;5013352;28;19920;-77
2023/05/06 08:54:36;;;;;;;;;;;21.30;55.70;;;;;;5011218;28;19921;-77
2023/05/06 08:57:02;;;;;;;;;;;21.40;55.70;;;;;;5026439;28;19921;-77
2023/05/06 08:59:29;;;;;;;;;;;21.50;55.70;;;;;;5033646;28;19979;-76
2023/05/06 09:01:55;;;;;;;;;;;21.60;55.70;;;;;;5010335;28;19928;-77
2023/05/06 09:04:20;;;;;;;;;;;21.60;55.60;;;;;;5014895;28;19928;-76
2023/05/06 09:06:46;;;;;;;;;;;21.70;55.50;;;;;;5012641;28;19967;-77
2023/05/06 09:09:13;;;;;;;;;;;21.80;55.50;;;;;;5012762;28;19944;-76
2023/05/06 09:11:39;;;;;;;;;;;21.90;55.40;;;;;;5001308;28;19952;-77
2023/05/06 09:14:08;;;;;;;;;;;22.10;55.40;;;;;;5012091;28;20358;-77
2023/05/06 09:16:33;;;;;;;;;;;22.30;55.20;;;;;;5014042;28;19921;-77
2023/05/06 09:18:59;;;;;;;;;;;22.40;55.10;;;;;;4996531;28;20298;-77
2023/05/06 09:21:34;;;;;;;;;;;22.60;54.90;;;;;;5012396;28;19942;-77
2023/05/06 09:23:59;;;;;;;;;;;22.80;54.80;;;;;;5027977;28;20020;-76
2023/05/06 09:26:25;;;;;;;;;;;22.90;54.70;;;;;;5015418;28;20003;-76
2023/05/06 09:28:51;;;;;;;;;;;23.00;54.50;;;;;;4998367;28;19920;-77
2023/05/06 09:31:16;;;;;;;;;;;23.20;54.40;;;;;;5028574;28;19925;-77
2023/05/06 09:33:42;;;;;;;;;;;23.30;54.30;;;;;;4998675;28;20572;-77
2023/05/06 09:36:12;;;;;;;;;;;23.40;54.20;;;;;;5030245;28;19964;-77
2023/05/06 09:38:39;;;;;;;;;;;23.40;54.10;;;;;;4998752;28;19953;-76
2023/05/06 09:41:05;;;;;;;;;;;23.50;54.00;;;;;;5030803;28;19925;-77
2023/05/06 09:43:30;;;;;;;;;;;23.60;54.00;;;;;;5012576;28;19932;-76
2023/05/06 09:45:56;;;;;;;;;;;23.60;53.90;;;;;;5025674;28;19920;-77
2023/05/06 09:48:22;;;;;;;;;;;23.70;53.90;;;;;;5028509;28;19921;-76
2023/05/06 09:50:48;;;;;;;;;;;23.70;53.90;;;;;;5023862;28;19921;-77
2023/05/06 09:53:14;;;;;;;;;;;23.70;53.80;;;;;;5010762;28;19960;-77
2023/05/06 09:55:39;;;;;;;;;;;23.70;53.80;;;;;;5026808;28;20113;-77
2023/05/06 09:58:05;;;;;;;;;;;23.80;53.80;;;;;;5011758;28;19921;-77
2023/05/06 10:00:31;;;;;;;;;;;23.80;53.80;;;;;;5012493;28;20391;-77
2023/05/06 10:02:56;;;;;;;;;;;23.80;53.80;;;;;;5011869;28;20310;-77
2023/05/06 10:05:22;;;;;;;;;;;23.80;53.80;;;;;;5011395;28;19994;-77
2023/05/06 10:07:48;;;;;;;;;;;23.80;53.70;;;;;;4995481;28;19933;-77
2023/05/06 10:10:13;;;;;;;;;;;23.80;53.70;;;;;;5010643;28;19921;-76
2023/05/06 10:12:39;;;;;;;;;;;23.90;53.70;;;;;;5012792;28;20027;-76
2023/05/06 10:15:05;;;;;;;;;;;23.80;53.70;;;;;;5010426;28;19974;-77
2023/05/06 10:17:31;;;;;;;;;;;23.90;53.70;;;;;;5010786;28;19924;-76
2023/05/06 10:19:57;;;;;;;;;;;23.80;53.70;;;;;;5023582;28;19924;-77
2023/05/06 10:22:41;;;;;;;;;;;23.90;53.70;;;;;;5012295;28;20386;-77
2023/05/06 10:25:16;;;;;;;;;;;23.90;53.70;;;;;;5008522;28;20580;-77
2023/05/06 10:27:41;;;;;;;;;;;24.00;53.60;;;;;;5009651;28;20441;-77
2023/05/06 10:30:07;;;;;;;;;;;24.10;53.50;;;;;;5011508;28;19933;-77
2023/05/06 10:32:32;;;;;;;;;;;24.10;53.50;;;;;;5016025;28;20312;-76
2023/05/06 10:35:01;;;;;;;;;;;24.10;53.50;;;;;;5028342;28;20630;-77
2023/05/06 10:37:27;;;;;;;;;;;24.10;53.40;;;;;;5012188;28;19920;-77
2023/05/06 10:39:53;;;;;;;;;;;24.10;53.40;;;;;;4996463;28;19974;-77
2023/05/06 10:42:18;;;;;;;;;;;24.20;53.40;;;;;;4997725;28;19925;-78
2023/05/06 10:45:00;;;;;;;;;;;24.30;53.40;;;;;;5011442;28;19923;-76
2023/05/06 10:47:25;;;;;;;;;;;24.40;53.30;;;;;;5010589;28;20473;-77
2023/05/06 10:50:10;;;;;;;;;;;24.60;53.20;;;;;;5008215;28;19921;-77
2023/05/06 10:52:42;;;;;;;;;;;24.80;53.10;;;;;;5029221;28;19921;-77
2023/05/06 10:55:23;;;;;;;;;;;25.00;52.80;;;;;;5009628;28;19927;-76
2023/05/06 10:57:48;;;;;;;;;;;25.20;52.70;;;;;;5018294;28;19960;-78
2023/05/06 11:00:14;;;;;;;;;;;25.40;52.50;;;;;;4992148;28;20031;-77
2023/05/06 11:02:40;;;;;;;;;;;25.40;52.40;;;;;;5012311;28;20422;-77
2023/05/06 11:05:06;;;;;;;;;;;25.60;52.40;;;;;;5024998;28;19921;-77
2023/05/06 11:07:31;;;;;;;;;;;25.70;52.20;;;;;;5000297;28;19968;-76
2023/05/06 11:09:57;;;;;;;;;;;25.90;52.10;;;;;;5023868;28;19920;-77
2023/05/06 11:12:41;;;;;;;;;;;26.10;52.00;;;;;;5008652;28;19925;-77
2023/05/06 11:15:25;;;;;;;;;;;26.30;51.90;;;;;;5025267;28;19932;-77
2023/05/06 11:17:51;;;;;;;;;;;26.40;51.70;;;;;;5026195;28;20015;-76
2023/05/06 11:20:18;;;;;;;;;;;26.60;51.60;;;;;;5024559;28;20668;-76
2023/05/06 11:22:43;;;;;;;;;;;26.80;51.40;;;;;;5025580;28;20003;-77
2023/05/06 11:25:08;;;;;;;;;;;26.90;51.30;;;;;;5026287;28;19932;-77
2023/05/06 11:27:34;;;;;;;;;;;27.10;51.30;;;;;;5018267;28;20363;-77
2023/05/06 11:29:59;;;;;;;;;;;27.20;51.10;;;;;;5007314;28;19921;-77
2023/05/06 11:32:25;;;;;;;;;;;27.30;50.90;;;;;;5014712;28;19925;-77
2023/05/06 11:34:53;;;;;;;;;;;27.40;50.90;;;;;;5007679;28;19921;-77
2023/05/06 11:37:25;;;;;;;;;;;27.50;50.90;;;;;;4996773;28;20007;-77
2023/05/06 11:39:50;;;;;;;;;;;27.50;50.80;;;;;;5007734;28;19995;-76
2023/05/06 11:42:22;;;;;;;;;;;27.60;50.90;;;;;;5014117;28;19935;-76
2023/05/06 11:44:47;;;;;;;;;;;27.60;50.80;;;;;;5010113;28;19991;-77
2023/05/06 11:47:13;;;;;;;;;;;27.70;50.70;;;;;;5010925;28;19924;-77
2023/05/06 11:49:39;;;;;;;;;;;27.80;50.70;;;;;;5011474;28;20002;-76
2023/05/06 11:52:05;;;;;;;;;;;27.90;50.60;;;;;;5009047;28;20430;-77
2023/05/06 11:54:32;;;;;;;;;;;28.10;50.50;;;;;;5009572;28;19921;-77
2023/05/06 11:56:58;;;;;;;;;;;28.30;50.40;;;;;;5007854;28;19925;-77
2023/05/06 11:59:27;;;;;;;;;;;28.50;50.30;;;;;;5012486;28;20439;-77
2023/05/06 12:01:52;;;;;;;;;;;28.60;50.00;;;;;;5007180;28;20678;-77
2023/05/06 12:04:18;;;;;;;;;;;28.70;49.90;;;;;;5008423;28;20721;-76
2023/05/06 12:06:43;;;;;;;;;;;28.80;49.90;;;;;;5027341;28;19976;-76
2023/05/06 12:09:09;;;;;;;;;;;28.80;49.80;;;;;;4989768;28;20448;-77
2023/05/06 12:11:35;;;;;;;;;;;28.80;49.80;;;;;;5023669;28;19944;-77
2023/05/06 12:14:01;;;;;;;;;;;28.80;49.80;;;;;;5012718;28;19921;-76
2023/05/06 12:16:27;;;;;;;;;;;28.80;49.80;;;;;;5011901;28;20460;-76
2023/05/06 12:18:52;;;;;;;;;;;28.80;49.90;;;;;;5012225;28;19921;-76
2023/05/06 12:21:23;;;;;;;;;;;28.70;49.90;;;;;;5011694;28;19925;-77
2023/05/06 12:23:52;;;;;;;;;;;28.70;49.90;;;;;;5009601;28;20011;-78
2023/05/06 12:26:18;;;;;;;;;;;28.70;49.90;;;;;;5008070;28;19925;-77
2023/05/06 12:28:44;;;;;;;;;;;28.70;49.80;;;;;;4997482;28;19925;-77
2023/05/06 12:31:22;;;;;;;;;;;28.70;49.90;;;;;;5008966;28;19921;-77
2023/05/06 12:33:48;;;;;;;;;;;28.60;49.90;;;;;;5011949;28;19921;-77
2023/05/06 12:36:14;;;;;;;;;;;28.50;49.90;;;;;;5011063;28;20343;-76
2023/05/06 12:38:55;;;;;;;;;;;28.50;49.90;;;;;;5028532;28;20395;-77
2023/05/06 12:41:22;;;;;;;;;;;28.50;50.00;;;;;;5013401;28;19925;-77
2023/05/06 12:43:47;;;;;;;;;;;28.50;50.00;;;;;;5007799;28;20140;-77
2023/05/06 12:46:13;;;;;;;;;;;28.50;49.90;;;;;;5023002;28;20278;-77
2023/05/06 12:48:40;;;;;;;;;;;28.50;49.90;;;;;;5010751;28;19932;-77
2023/05/06 12:51:18;;;;;;;;;;;28.50;50.00;;;;;;5008388;28;19971;-77
2023/05/06 12:53:43;;;;;;;;;;;28.60;49.90;;;;;;5013845;28;19928;-77
2023/05/06 12:56:09;;;;;;;;;;;28.70;49.70;;;;;;5009298;28;20042;-77
2023/05/06 12:58:36;;;;;;;;;;;28.90;49.70;;;;;;5012316;28;19960;-77
2023/05/06 13:01:02;;;;;;;;;;;29.00;49.60;;;;;;5012962;28;20379;-76
2023/05/06 13:03:27;;;;;;;;;;;29.10;49.50;;;;;;5014253;28;19981;-77
2023/05/06 13:05:52;;;;;;;;;;;29.10;49.30;;;;;;5012339;28;19924;-77
2023/05/06 13:08:18;;;;;;;;;;;29.10;49.30;;;;;;4998141;28;19929;-77
2023/05/06 13:10:43;;;;;;;;;;;29.10;49.20;;;;;;5030152;28;19986;-76
2023/05/06 13:13:09;;;;;;;;;;;29.10;49.30;;;;;;5027666;28;19999;-77
2023/05/06 13:15:35;;;;;;;;;;;29.20;49.20;;;;;;5026304;28;19916;-78
2023/05/06 13:18:00;;;;;;;;;;;29.30;49.30;;;;;;5012192;28;20346;-77
2023/05/06 13:20:26;;;;;;;;;;;29.40;49.20;;;;;;5015162;28;20372;-77
2023/05/06 13:22:51;;;;;;;;;;;29.40;49.10;;;;;;5012565;28;19928;-76
2023/05/06 13:25:17;;;;;;;;;;;29.40;49.00;;;;;;4999729;28;19925;-77
2023/05/06 13:27:42;;;;;;;;;;;29.50;49.00;;;;;;5027521;28;19931;-77
2023/05/06 13:30:08;;;;;;;;;;;29.50;49.00;;;;;;5008365;28;20539;-76
2023/05/06 13:32:33;;;;;;;;;;;29.40;48.90;;;;;;5013647;28;19921;-77
2023/05/06 13:34:59;;;;;;;;;;;29.30;48.90;;;;;;5029518;28;19950;-76
2023/05/06 13:37:24;;;;;;;;;;;29.20;49.00;;;;;;5002089;28;19925;-77
2023/05/06 13:39:50;;;;;;;;;;;29.10;49.00;;;;;;4994837;28;20399;-77
2023/05/06 13:42:15;;;;;;;;;;;29.10;49.00;;;;;;5032382;28;19925;-76
2023/05/06 13:44:41;;;;;;;;;;;29.10;49.80;;;;;;5016330;28;19921;-77
2023/05/06 13:47:06;;;;;;;;;;;29.00;49.10;;;;;;5010564;28;20304;-76
2023/05/06 13:49:32;;;;;;;;;;;29.00;49.10;;;;;;5012841;28;19916;-77
2023/05/06 13:51:57;;;;;;;;;;;29.00;49.10;;;;;;5007208;28;19921;-77
2023/05/06 13:54:23;;;;;;;;;;;29.00;49.10;;;;;;5029810;28;19917;-77
2023/05/06 13:56:48;;;;;;;;;;;28.90;49.00;;;;;;5000657;28;21918;-77
2023/05/06 13:59:13;;;;;;;;;;;28.90;49.10;;;;;;5008127;28;20018;-76
2023/05/06 14:01:40;;;;;;;;;;;28.90;49.00;;;;;;5010560;28;19936;-77
2023/05/06 14:04:05;;;;;;;;;;;28.90;49.00;;;;;;5010256;28;19921;-77
2023/05/06 14:06:31;;;;;;;;;;;28.80;49.00;;;;;;5010000;28;19929;-75
2023/05/06 14:08:56;;;;;;;;;;;28.80;49.00;;;;;;5013261;28;19921;-77
2023/05/06 14:11:22;;;;;;;;;;;28.80;49.00;;;;;;5011551;28;19921;-77